sensor_id;sensor_type;location;lat;lon;timestamp;P1;durP1;ratioP1;P2;durP2;ratioP2
18905;SDS011;9585;51.018;4.282;2022-11-25T00:02:29;10.80;;;2.70;;
18905;SDS011;9585;51.018;4.282;2022-11-25T00:04:56;7.60;;;2.40;;
18905;SDS011;9585;51.018;4.282;2022-11-25T00:07:23;11.68;;;2.50;;
18905;SDS011;9585;51.018;4.282;2022-11-25T00:09:50;9.80;;;2.85;;
18905;SDS011;9585;51.018;4.282;2022-11-25T00:12:18;14.85;;;3.25;;
18905;SDS011;9585;51.018;4.282;2022-11-25T00:14:45;11.23;;;2.65;;
18905;SDS011;9585;51.018;4.282;2022-11-25T00:17:13;9.55;;;2.25;;
18905;SDS011;9585;51.018;4.282;2022-11-25T00:19:41;9.90;;;2.30;;
18905;SDS011;9585;51.018;4.282;2022-11-25T00:22:09;7.93;;;1.98;;
18905;SDS011;9585;51.018;4.282;2022-11-25T00:24:36;7.93;;;2.00;;
18905;SDS011;9585;51.018;4.282;2022-11-25T00:27:03;7.07;;;2.13;;
18905;SDS011;9585;51.018;4.282;2022-11-25T00:29:30;6.68;;;1.60;;
18905;SDS011;9585;51.018;4.282;2022-11-25T00:31:57;5.43;;;1.60;;
18905;SDS011;9585;51.018;4.282;2022-11-25T00:34:25;5.53;;;1.30;;
18905;SDS011;9585;51.018;4.282;2022-11-25T00:36:54;5.22;;;1.50;;
18905;SDS011;9585;51.018;4.282;2022-11-25T00:39:21;5.18;;;1.35;;
18905;SDS011;9585;51.018;4.282;2022-11-25T00:41:53;4.50;;;1.30;;
18905;SDS011;9585;51.018;4.282;2022-11-25T00:44:37;3.42;;;1.20;;
18905;SDS011;9585;51.018;4.282;2022-11-25T00:47:05;2.53;;;1.00;;
18905;SDS011;9585;51.018;4.282;2022-11-25T00:49:34;4.30;;;1.40;;
18905;SDS011;9585;51.018;4.282;2022-11-25T00:52:04;3.17;;;0.93;;
18905;SDS011;9585;51.018;4.282;2022-11-25T00:54:31;6.15;;;1.35;;
18905;SDS011;9585;51.018;4.282;2022-11-25T00:56:59;4.00;;;1.20;;
18905;SDS011;9585;51.018;4.282;2022-11-25T00:59:26;3.83;;;1.05;;
18905;SDS011;9585;51.018;4.282;2022-11-25T01:01:54;1.83;;;0.85;;
18905;SDS011;9585;51.018;4.282;2022-11-25T01:04:21;2.42;;;0.85;;
18905;SDS011;9585;51.018;4.282;2022-11-25T01:06:49;3.20;;;1.10;;
18905;SDS011;9585;51.018;4.282;2022-11-25T01:09:17;3.30;;;0.68;;
18905;SDS011;9585;51.018;4.282;2022-11-25T01:11:45;1.63;;;0.57;;
18905;SDS011;9585;51.018;4.282;2022-11-25T01:14:14;3.85;;;1.02;;
18905;SDS011;9585;51.018;4.282;2022-11-25T01:16:41;1.80;;;0.52;;
18905;SDS011;9585;51.018;4.282;2022-11-25T01:19:09;2.70;;;0.52;;
18905;SDS011;9585;51.018;4.282;2022-11-25T01:21:37;2.25;;;0.70;;
18905;SDS011;9585;51.018;4.282;2022-11-25T01:24:04;4.45;;;0.80;;
18905;SDS011;9585;51.018;4.282;2022-11-25T01:26:34;3.42;;;0.60;;
18905;SDS011;9585;51.018;4.282;2022-11-25T01:29:02;3.22;;;0.75;;
18905;SDS011;9585;51.018;4.282;2022-11-25T01:31:31;2.53;;;0.70;;
18905;SDS011;9585;51.018;4.282;2022-11-25T01:34:00;2.75;;;0.90;;
18905;SDS011;9585;51.018;4.282;2022-11-25T01:36:30;3.00;;;0.90;;
18905;SDS011;9585;51.018;4.282;2022-11-25T01:38:58;2.05;;;0.80;;
18905;SDS011;9585;51.018;4.282;2022-11-25T01:41:26;3.38;;;0.85;;
18905;SDS011;9585;51.018;4.282;2022-11-25T01:44:06;2.90;;;0.70;;
18905;SDS011;9585;51.018;4.282;2022-11-25T01:46:40;2.33;;;0.73;;
18905;SDS011;9585;51.018;4.282;2022-11-25T01:49:14;1.75;;;0.70;;
18905;SDS011;9585;51.018;4.282;2022-11-25T01:51:44;2.15;;;1.00;;
18905;SDS011;9585;51.018;4.282;2022-11-25T01:54:15;2.42;;;0.60;;
18905;SDS011;9585;51.018;4.282;2022-11-25T01:56:45;1.10;;;0.40;;
18905;SDS011;9585;51.018;4.282;2022-11-25T01:59:16;2.28;;;0.50;;
18905;SDS011;9585;51.018;4.282;2022-11-25T02:01:44;1.92;;;0.70;;
18905;SDS011;9585;51.018;4.282;2022-11-25T02:04:11;1.88;;;0.68;;
18905;SDS011;9585;51.018;4.282;2022-11-25T02:06:41;3.88;;;0.80;;
18905;SDS011;9585;51.018;4.282;2022-11-25T02:09:13;2.08;;;0.65;;
18905;SDS011;9585;51.018;4.282;2022-11-25T02:11:41;1.00;;;0.50;;
18905;SDS011;9585;51.018;4.282;2022-11-25T02:14:10;1.63;;;0.55;;
18905;SDS011;9585;51.018;4.282;2022-11-25T02:16:40;1.63;;;0.60;;
18905;SDS011;9585;51.018;4.282;2022-11-25T02:19:08;2.13;;;0.57;;
18905;SDS011;9585;51.018;4.282;2022-11-25T02:21:43;1.42;;;0.60;;
18905;SDS011;9585;51.018;4.282;2022-11-25T02:24:17;1.40;;;0.60;;
18905;SDS011;9585;51.018;4.282;2022-11-25T02:26:51;1.15;;;0.43;;
18905;SDS011;9585;51.018;4.282;2022-11-25T02:29:19;2.42;;;0.50;;
18905;SDS011;9585;51.018;4.282;2022-11-25T02:31:47;2.63;;;0.40;;
18905;SDS011;9585;51.018;4.282;2022-11-25T02:34:15;2.08;;;0.60;;
18905;SDS011;9585;51.018;4.282;2022-11-25T02:36:42;2.20;;;0.60;;
18905;SDS011;9585;51.018;4.282;2022-11-25T02:39:10;1.23;;;0.50;;
18905;SDS011;9585;51.018;4.282;2022-11-25T02:41:38;2.13;;;0.63;;
18905;SDS011;9585;51.018;4.282;2022-11-25T02:44:10;1.33;;;0.52;;
18905;SDS011;9585;51.018;4.282;2022-11-25T02:46:38;1.52;;;0.60;;
18905;SDS011;9585;51.018;4.282;2022-11-25T02:49:05;1.20;;;0.50;;
18905;SDS011;9585;51.018;4.282;2022-11-25T02:51:32;1.83;;;0.68;;
18905;SDS011;9585;51.018;4.282;2022-11-25T02:54:00;1.50;;;0.60;;
18905;SDS011;9585;51.018;4.282;2022-11-25T02:56:28;0.98;;;0.55;;
18905;SDS011;9585;51.018;4.282;2022-11-25T02:58:57;1.30;;;0.77;;
18905;SDS011;9585;51.018;4.282;2022-11-25T03:01:26;3.15;;;0.77;;
18905;SDS011;9585;51.018;4.282;2022-11-25T03:03:55;2.17;;;0.60;;
18905;SDS011;9585;51.018;4.282;2022-11-25T03:06:22;1.63;;;0.80;;
18905;SDS011;9585;51.018;4.282;2022-11-25T03:08:49;2.67;;;0.88;;
18905;SDS011;9585;51.018;4.282;2022-11-25T03:11:17;4.90;;;0.80;;
18905;SDS011;9585;51.018;4.282;2022-11-25T03:13:44;3.42;;;0.90;;
18905;SDS011;9585;51.018;4.282;2022-11-25T03:16:11;1.05;;;0.80;;
18905;SDS011;9585;51.018;4.282;2022-11-25T03:18:40;1.67;;;0.80;;
18905;SDS011;9585;51.018;4.282;2022-11-25T03:21:07;2.50;;;1.15;;
18905;SDS011;9585;51.018;4.282;2022-11-25T03:23:34;2.67;;;0.80;;
18905;SDS011;9585;51.018;4.282;2022-11-25T03:26:03;2.20;;;0.90;;
18905;SDS011;9585;51.018;4.282;2022-11-25T03:28:32;3.70;;;1.13;;
18905;SDS011;9585;51.018;4.282;2022-11-25T03:30:59;2.35;;;0.90;;
18905;SDS011;9585;51.018;4.282;2022-11-25T03:33:26;2.85;;;1.00;;
18905;SDS011;9585;51.018;4.282;2022-11-25T03:35:55;2.13;;;1.00;;
18905;SDS011;9585;51.018;4.282;2022-11-25T03:38:22;4.80;;;1.27;;
18905;SDS011;9585;51.018;4.282;2022-11-25T03:40:50;3.00;;;1.20;;
18905;SDS011;9585;51.018;4.282;2022-11-25T03:43:17;4.07;;;1.00;;
18905;SDS011;9585;51.018;4.282;2022-11-25T03:45:46;4.50;;;1.20;;
18905;SDS011;9585;51.018;4.282;2022-11-25T03:48:14;2.50;;;1.13;;
18905;SDS011;9585;51.018;4.282;2022-11-25T03:50:41;4.78;;;1.05;;
18905;SDS011;9585;51.018;4.282;2022-11-25T03:53:10;4.57;;;1.25;;
18905;SDS011;9585;51.018;4.282;2022-11-25T03:55:38;5.28;;;1.42;;
18905;SDS011;9585;51.018;4.282;2022-11-25T03:58:05;6.43;;;1.30;;
18905;SDS011;9585;51.018;4.282;2022-11-25T04:00:32;5.35;;;1.48;;
18905;SDS011;9585;51.018;4.282;2022-11-25T04:02:59;4.35;;;1.48;;
18905;SDS011;9585;51.018;4.282;2022-11-25T04:05:27;5.78;;;1.50;;
18905;SDS011;9585;51.018;4.282;2022-11-25T04:07:54;6.38;;;1.63;;
18905;SDS011;9585;51.018;4.282;2022-11-25T04:10:22;4.35;;;1.60;;
18905;SDS011;9585;51.018;4.282;2022-11-25T04:12:50;6.75;;;1.75;;
18905;SDS011;9585;51.018;4.282;2022-11-25T04:15:16;5.07;;;1.45;;
18905;SDS011;9585;51.018;4.282;2022-11-25T04:17:44;8.35;;;1.52;;
18905;SDS011;9585;51.018;4.282;2022-11-25T04:20:12;4.60;;;1.45;;
18905;SDS011;9585;51.018;4.282;2022-11-25T04:22:39;7.40;;;1.75;;
18905;SDS011;9585;51.018;4.282;2022-11-25T04:25:07;7.95;;;1.90;;
18905;SDS011;9585;51.018;4.282;2022-11-25T04:27:36;7.00;;;1.50;;
18905;SDS011;9585;51.018;4.282;2022-11-25T04:30:04;9.23;;;1.85;;
18905;SDS011;9585;51.018;4.282;2022-11-25T04:32:32;7.30;;;1.77;;
18905;SDS011;9585;51.018;4.282;2022-11-25T04:35:01;5.60;;;1.70;;
18905;SDS011;9585;51.018;4.282;2022-11-25T04:37:29;4.45;;;1.55;;
18905;SDS011;9585;51.018;4.282;2022-11-25T04:39:56;6.38;;;1.60;;
18905;SDS011;9585;51.018;4.282;2022-11-25T04:42:23;6.35;;;1.80;;
18905;SDS011;9585;51.018;4.282;2022-11-25T04:44:58;6.20;;;1.63;;
18905;SDS011;9585;51.018;4.282;2022-11-25T04:47:26;5.30;;;2.00;;
18905;SDS011;9585;51.018;4.282;2022-11-25T04:49:54;5.57;;;1.38;;
18905;SDS011;9585;51.018;4.282;2022-11-25T04:52:21;5.78;;;1.65;;
18905;SDS011;9585;51.018;4.282;2022-11-25T04:54:49;6.85;;;1.70;;
18905;SDS011;9585;51.018;4.282;2022-11-25T04:57:16;7.13;;;1.80;;
18905;SDS011;9585;51.018;4.282;2022-11-25T04:59:43;5.53;;;1.90;;
18905;SDS011;9585;51.018;4.282;2022-11-25T05:02:13;9.50;;;1.90;;
18905;SDS011;9585;51.018;4.282;2022-11-25T05:04:42;7.28;;;1.95;;
18905;SDS011;9585;51.018;4.282;2022-11-25T05:07:11;5.43;;;1.83;;
18905;SDS011;9585;51.018;4.282;2022-11-25T05:09:39;7.32;;;1.98;;
18905;SDS011;9585;51.018;4.282;2022-11-25T05:12:07;6.57;;;1.85;;
18905;SDS011;9585;51.018;4.282;2022-11-25T05:14:39;6.75;;;1.70;;
18905;SDS011;9585;51.018;4.282;2022-11-25T05:17:11;5.45;;;1.75;;
18905;SDS011;9585;51.018;4.282;2022-11-25T05:19:41;7.15;;;1.83;;
18905;SDS011;9585;51.018;4.282;2022-11-25T05:22:09;6.07;;;1.60;;
18905;SDS011;9585;51.018;4.282;2022-11-25T05:24:37;7.82;;;1.67;;
18905;SDS011;9585;51.018;4.282;2022-11-25T05:27:05;4.70;;;1.70;;
18905;SDS011;9585;51.018;4.282;2022-11-25T05:29:33;8.52;;;1.60;;
18905;SDS011;9585;51.018;4.282;2022-11-25T05:32:01;7.18;;;2.03;;
18905;SDS011;9585;51.018;4.282;2022-11-25T05:34:30;5.35;;;1.92;;
18905;SDS011;9585;51.018;4.282;2022-11-25T05:36:57;6.50;;;2.00;;
18905;SDS011;9585;51.018;4.282;2022-11-25T05:39:24;6.22;;;1.75;;
18905;SDS011;9585;51.018;4.282;2022-11-25T05:41:53;8.07;;;1.70;;
18905;SDS011;9585;51.018;4.282;2022-11-25T05:44:20;6.82;;;1.55;;
18905;SDS011;9585;51.018;4.282;2022-11-25T05:46:48;4.15;;;1.60;;
18905;SDS011;9585;51.018;4.282;2022-11-25T05:49:15;5.88;;;1.90;;
18905;SDS011;9585;51.018;4.282;2022-11-25T05:51:44;7.10;;;1.73;;
18905;SDS011;9585;51.018;4.282;2022-11-25T05:54:11;7.50;;;1.70;;
18905;SDS011;9585;51.018;4.282;2022-11-25T05:56:39;5.40;;;1.70;;
18905;SDS011;9585;51.018;4.282;2022-11-25T05:59:06;6.30;;;1.70;;
18905;SDS011;9585;51.018;4.282;2022-11-25T06:01:33;5.75;;;1.52;;
18905;SDS011;9585;51.018;4.282;2022-11-25T06:04:01;8.02;;;2.00;;
18905;SDS011;9585;51.018;4.282;2022-11-25T06:06:29;5.93;;;1.63;;
18905;SDS011;9585;51.018;4.282;2022-11-25T06:08:59;7.07;;;2.08;;
18905;SDS011;9585;51.018;4.282;2022-11-25T06:11:26;7.75;;;1.85;;
18905;SDS011;9585;51.018;4.282;2022-11-25T06:13:55;4.80;;;1.70;;
18905;SDS011;9585;51.018;4.282;2022-11-25T06:16:23;5.70;;;1.83;;
18905;SDS011;9585;51.018;4.282;2022-11-25T06:18:50;5.95;;;1.85;;
18905;SDS011;9585;51.018;4.282;2022-11-25T06:21:18;5.18;;;1.48;;
18905;SDS011;9585;51.018;4.282;2022-11-25T06:23:45;6.20;;;1.70;;
18905;SDS011;9585;51.018;4.282;2022-11-25T06:26:15;5.63;;;2.08;;
18905;SDS011;9585;51.018;4.282;2022-11-25T06:28:43;6.10;;;1.92;;
18905;SDS011;9585;51.018;4.282;2022-11-25T06:31:11;6.35;;;1.95;;
18905;SDS011;9585;51.018;4.282;2022-11-25T06:33:40;6.15;;;1.90;;
18905;SDS011;9585;51.018;4.282;2022-11-25T06:36:08;5.90;;;1.88;;
18905;SDS011;9585;51.018;4.282;2022-11-25T06:38:41;6.53;;;2.40;;
18905;SDS011;9585;51.018;4.282;2022-11-25T06:41:11;4.68;;;1.65;;
18905;SDS011;9585;51.018;4.282;2022-11-25T06:43:40;6.75;;;2.22;;
18905;SDS011;9585;51.018;4.282;2022-11-25T06:46:08;6.32;;;2.05;;
18905;SDS011;9585;51.018;4.282;2022-11-25T06:48:37;7.50;;;2.15;;
18905;SDS011;9585;51.018;4.282;2022-11-25T06:51:05;5.72;;;1.92;;
18905;SDS011;9585;51.018;4.282;2022-11-25T06:53:33;6.57;;;2.00;;
18905;SDS011;9585;51.018;4.282;2022-11-25T06:56:05;8.07;;;2.20;;
18905;SDS011;9585;51.018;4.282;2022-11-25T06:58:34;9.05;;;2.35;;
18905;SDS011;9585;51.018;4.282;2022-11-25T07:01:05;8.57;;;2.50;;
18905;SDS011;9585;51.018;4.282;2022-11-25T07:03:33;5.70;;;2.40;;
18905;SDS011;9585;51.018;4.282;2022-11-25T07:06:00;6.75;;;2.72;;
18905;SDS011;9585;51.018;4.282;2022-11-25T07:08:28;11.10;;;2.50;;
18905;SDS011;9585;51.018;4.282;2022-11-25T07:11:00;7.70;;;2.72;;
18905;SDS011;9585;51.018;4.282;2022-11-25T07:13:29;9.98;;;2.40;;
18905;SDS011;9585;51.018;4.282;2022-11-25T07:15:58;11.13;;;2.55;;
18905;SDS011;9585;51.018;4.282;2022-11-25T07:18:29;10.90;;;2.58;;
18905;SDS011;9585;51.018;4.282;2022-11-25T07:21:00;10.00;;;2.65;;
18905;SDS011;9585;51.018;4.282;2022-11-25T07:23:29;8.27;;;2.25;;
18905;SDS011;9585;51.018;4.282;2022-11-25T07:26:00;7.93;;;2.50;;
18905;SDS011;9585;51.018;4.282;2022-11-25T07:28:28;9.32;;;2.90;;
18905;SDS011;9585;51.018;4.282;2022-11-25T07:30:55;12.25;;;2.70;;
18905;SDS011;9585;51.018;4.282;2022-11-25T07:33:31;8.63;;;2.60;;
18905;SDS011;9585;51.018;4.282;2022-11-25T07:36:00;8.70;;;2.42;;
18905;SDS011;9585;51.018;4.282;2022-11-25T07:38:28;8.85;;;2.70;;
18905;SDS011;9585;51.018;4.282;2022-11-25T07:40:55;10.10;;;2.78;;
18905;SDS011;9585;51.018;4.282;2022-11-25T07:43:29;7.40;;;2.92;;
18905;SDS011;9585;51.018;4.282;2022-11-25T07:46:06;6.07;;;2.30;;
18905;SDS011;9585;51.018;4.282;2022-11-25T07:48:41;12.13;;;2.90;;
18905;SDS011;9585;51.018;4.282;2022-11-25T07:51:12;8.70;;;2.40;;
18905;SDS011;9585;51.018;4.282;2022-11-25T07:53:41;8.95;;;2.15;;
18905;SDS011;9585;51.018;4.282;2022-11-25T07:56:08;9.77;;;2.58;;
18905;SDS011;9585;51.018;4.282;2022-11-25T07:58:35;8.57;;;2.67;;
18905;SDS011;9585;51.018;4.282;2022-11-25T08:01:03;10.15;;;2.63;;
18905;SDS011;9585;51.018;4.282;2022-11-25T08:03:31;11.32;;;2.60;;
18905;SDS011;9585;51.018;4.282;2022-11-25T08:06:01;8.00;;;2.20;;
18905;SDS011;9585;51.018;4.282;2022-11-25T08:08:29;7.97;;;2.25;;
18905;SDS011;9585;51.018;4.282;2022-11-25T08:10:56;9.88;;;2.83;;
18905;SDS011;9585;51.018;4.282;2022-11-25T08:13:26;8.25;;;2.33;;
18905;SDS011;9585;51.018;4.282;2022-11-25T08:15:53;11.40;;;2.58;;
18905;SDS011;9585;51.018;4.282;2022-11-25T08:18:24;7.65;;;2.88;;
18905;SDS011;9585;51.018;4.282;2022-11-25T08:20:51;12.95;;;2.55;;
18905;SDS011;9585;51.018;4.282;2022-11-25T08:23:20;11.40;;;2.63;;
18905;SDS011;9585;51.018;4.282;2022-11-25T08:25:47;9.15;;;2.70;;
18905;SDS011;9585;51.018;4.282;2022-11-25T08:28:14;10.82;;;2.80;;
18905;SDS011;9585;51.018;4.282;2022-11-25T08:30:42;9.77;;;2.53;;
18905;SDS011;9585;51.018;4.282;2022-11-25T08:33:09;9.88;;;2.80;;
18905;SDS011;9585;51.018;4.282;2022-11-25T08:35:36;8.90;;;2.60;;
18905;SDS011;9585;51.018;4.282;2022-11-25T08:38:03;8.98;;;2.67;;
18905;SDS011;9585;51.018;4.282;2022-11-25T08:40:32;10.82;;;2.80;;
18905;SDS011;9585;51.018;4.282;2022-11-25T08:43:02;9.38;;;2.97;;
18905;SDS011;9585;51.018;4.282;2022-11-25T08:45:29;8.68;;;2.88;;
18905;SDS011;9585;51.018;4.282;2022-11-25T08:47:58;7.57;;;2.63;;
18905;SDS011;9585;51.018;4.282;2022-11-25T08:50:25;9.55;;;2.50;;
18905;SDS011;9585;51.018;4.282;2022-11-25T08:52:52;8.50;;;2.58;;
18905;SDS011;9585;51.018;4.282;2022-11-25T08:55:20;9.77;;;2.97;;
18905;SDS011;9585;51.018;4.282;2022-11-25T08:57:51;9.20;;;3.00;;
18905;SDS011;9585;51.018;4.282;2022-11-25T09:00:19;7.03;;;2.50;;
18905;SDS011;9585;51.018;4.282;2022-11-25T09:02:47;5.65;;;2.25;;
18905;SDS011;9585;51.018;4.282;2022-11-25T09:05:15;9.35;;;2.45;;
18905;SDS011;9585;51.018;4.282;2022-11-25T09:07:43;9.30;;;2.58;;
18905;SDS011;9585;51.018;4.282;2022-11-25T09:10:12;6.75;;;2.22;;
18905;SDS011;9585;51.018;4.282;2022-11-25T09:12:41;10.07;;;2.70;;
18905;SDS011;9585;51.018;4.282;2022-11-25T09:15:10;6.20;;;2.50;;
18905;SDS011;9585;51.018;4.282;2022-11-25T09:17:37;6.82;;;2.47;;
18905;SDS011;9585;51.018;4.282;2022-11-25T09:20:05;9.70;;;2.60;;
18905;SDS011;9585;51.018;4.282;2022-11-25T09:22:33;8.38;;;2.20;;
18905;SDS011;9585;51.018;4.282;2022-11-25T09:25:00;7.50;;;2.20;;
18905;SDS011;9585;51.018;4.282;2022-11-25T09:27:28;9.45;;;2.25;;
18905;SDS011;9585;51.018;4.282;2022-11-25T09:29:56;5.88;;;1.80;;
18905;SDS011;9585;51.018;4.282;2022-11-25T09:32:25;7.57;;;2.75;;
18905;SDS011;9585;51.018;4.282;2022-11-25T09:34:52;8.05;;;2.40;;
18905;SDS011;9585;51.018;4.282;2022-11-25T09:37:20;4.93;;;2.20;;
18905;SDS011;9585;51.018;4.282;2022-11-25T09:39:47;8.27;;;2.25;;
18905;SDS011;9585;51.018;4.282;2022-11-25T09:42:23;9.82;;;2.20;;
18905;SDS011;9585;51.018;4.282;2022-11-25T09:45:15;6.57;;;2.05;;
18905;SDS011;9585;51.018;4.282;2022-11-25T09:48:09;6.10;;;2.00;;
18905;SDS011;9585;51.018;4.282;2022-11-25T09:50:49;5.40;;;1.80;;
18905;SDS011;9585;51.018;4.282;2022-11-25T09:53:29;7.85;;;2.13;;
18905;SDS011;9585;51.018;4.282;2022-11-25T09:56:10;6.95;;;1.77;;
18905;SDS011;9585;51.018;4.282;2022-11-25T09:58:45;6.63;;;2.10;;
18905;SDS011;9585;51.018;4.282;2022-11-25T10:01:18;5.38;;;1.85;;
18905;SDS011;9585;51.018;4.282;2022-11-25T10:03:52;5.53;;;1.80;;
18905;SDS011;9585;51.018;4.282;2022-11-25T10:06:21;4.88;;;1.90;;
18905;SDS011;9585;51.018;4.282;2022-11-25T10:08:51;6.43;;;2.38;;
18905;SDS011;9585;51.018;4.282;2022-11-25T10:11:25;10.07;;;2.40;;
18905;SDS011;9585;51.018;4.282;2022-11-25T10:14:01;6.78;;;2.00;;
18905;SDS011;9585;51.018;4.282;2022-11-25T10:16:34;5.88;;;2.22;;
18905;SDS011;9585;51.018;4.282;2022-11-25T10:19:12;6.43;;;1.88;;
18905;SDS011;9585;51.018;4.282;2022-11-25T10:21:47;6.68;;;2.13;;
18905;SDS011;9585;51.018;4.282;2022-11-25T10:24:15;5.43;;;2.25;;
18905;SDS011;9585;51.018;4.282;2022-11-25T10:26:57;8.05;;;2.22;;
18905;SDS011;9585;51.018;4.282;2022-11-25T10:29:31;5.30;;;2.03;;
18905;SDS011;9585;51.018;4.282;2022-11-25T10:32:08;6.88;;;2.28;;
18905;SDS011;9585;51.018;4.282;2022-11-25T10:34:47;5.07;;;2.00;;
18905;SDS011;9585;51.018;4.282;2022-11-25T10:37:19;6.60;;;2.40;;
18905;SDS011;9585;51.018;4.282;2022-11-25T10:39:52;5.03;;;2.08;;
18905;SDS011;9585;51.018;4.282;2022-11-25T10:42:20;4.57;;;1.85;;
18905;SDS011;9585;51.018;4.282;2022-11-25T10:44:49;7.03;;;2.13;;
18905;SDS011;9585;51.018;4.282;2022-11-25T10:47:33;8.98;;;2.30;;
18905;SDS011;9585;51.018;4.282;2022-11-25T10:50:12;8.07;;;2.25;;
18905;SDS011;9585;51.018;4.282;2022-11-25T10:52:45;8.00;;;2.30;;
18905;SDS011;9585;51.018;4.282;2022-11-25T10:55:20;9.75;;;2.78;;
18905;SDS011;9585;51.018;4.282;2022-11-25T10:57:49;7.47;;;2.63;;
18905;SDS011;9585;51.018;4.282;2022-11-25T11:00:24;8.43;;;2.67;;
18905;SDS011;9585;51.018;4.282;2022-11-25T11:02:54;7.18;;;2.95;;
18905;SDS011;9585;51.018;4.282;2022-11-25T11:05:24;9.98;;;2.88;;
18905;SDS011;9585;51.018;4.282;2022-11-25T11:08:07;8.23;;;2.70;;
18905;SDS011;9585;51.018;4.282;2022-11-25T11:10:40;10.27;;;2.90;;
18905;SDS011;9585;51.018;4.282;2022-11-25T11:13:19;8.82;;;3.00;;
18905;SDS011;9585;51.018;4.282;2022-11-25T11:15:50;8.07;;;2.42;;
18905;SDS011;9585;51.018;4.282;2022-11-25T11:18:20;9.82;;;2.60;;
18905;SDS011;9585;51.018;4.282;2022-11-25T11:20:53;6.13;;;2.42;;
18905;SDS011;9585;51.018;4.282;2022-11-25T11:23:22;8.27;;;2.47;;
18905;SDS011;9585;51.018;4.282;2022-11-25T11:25:54;8.52;;;2.42;;
18905;SDS011;9585;51.018;4.282;2022-11-25T11:28:25;8.52;;;2.55;;
18905;SDS011;9585;51.018;4.282;2022-11-25T11:30:57;8.50;;;2.35;;
18905;SDS011;9585;51.018;4.282;2022-11-25T11:33:28;9.27;;;2.28;;
18905;SDS011;9585;51.018;4.282;2022-11-25T11:36:06;5.32;;;2.13;;
18905;SDS011;9585;51.018;4.282;2022-11-25T11:38:42;8.57;;;2.35;;
18905;SDS011;9585;51.018;4.282;2022-11-25T11:41:20;8.38;;;2.50;;
18905;SDS011;9585;51.018;4.282;2022-11-25T11:43:59;8.80;;;2.22;;
18905;SDS011;9585;51.018;4.282;2022-11-25T11:46:52;6.38;;;2.53;;
18905;SDS011;9585;51.018;4.282;2022-11-25T11:49:38;9.82;;;2.72;;
18905;SDS011;9585;51.018;4.282;2022-11-25T11:52:28;6.55;;;2.50;;
18905;SDS011;9585;51.018;4.282;2022-11-25T11:55:13;7.10;;;2.80;;
18905;SDS011;9585;51.018;4.282;2022-11-25T11:57:52;9.75;;;2.85;;
18905;SDS011;9585;51.018;4.282;2022-11-25T12:00:28;9.32;;;2.70;;
18905;SDS011;9585;51.018;4.282;2022-11-25T12:03:08;7.20;;;2.47;;
18905;SDS011;9585;51.018;4.282;2022-11-25T12:05:38;6.63;;;2.20;;
18905;SDS011;9585;51.018;4.282;2022-11-25T12:08:08;6.88;;;2.17;;
18905;SDS011;9585;51.018;4.282;2022-11-25T12:10:39;6.18;;;2.47;;
18905;SDS011;9585;51.018;4.282;2022-11-25T12:13:14;9.57;;;2.53;;
18905;SDS011;9585;51.018;4.282;2022-11-25T12:15:46;13.38;;;2.83;;
18905;SDS011;9585;51.018;4.282;2022-11-25T12:18:31;7.97;;;2.70;;
18905;SDS011;9585;51.018;4.282;2022-11-25T12:21:05;9.40;;;2.72;;
18905;SDS011;9585;51.018;4.282;2022-11-25T12:23:41;9.88;;;2.63;;
18905;SDS011;9585;51.018;4.282;2022-11-25T12:26:18;6.65;;;2.58;;
18905;SDS011;9585;51.018;4.282;2022-11-25T12:28:50;7.93;;;2.10;;
18905;SDS011;9585;51.018;4.282;2022-11-25T12:31:21;7.25;;;2.20;;
18905;SDS011;9585;51.018;4.282;2022-11-25T12:33:53;9.27;;;2.60;;
18905;SDS011;9585;51.018;4.282;2022-11-25T12:36:28;7.78;;;2.40;;
18905;SDS011;9585;51.018;4.282;2022-11-25T12:39:02;8.52;;;2.58;;
18905;SDS011;9585;51.018;4.282;2022-11-25T12:41:34;9.80;;;2.75;;
18905;SDS011;9585;51.018;4.282;2022-11-25T12:44:07;8.43;;;2.72;;
18905;SDS011;9585;51.018;4.282;2022-11-25T12:46:43;9.93;;;2.40;;
18905;SDS011;9585;51.018;4.282;2022-11-25T12:49:13;7.05;;;2.13;;
18905;SDS011;9585;51.018;4.282;2022-11-25T12:51:53;8.07;;;2.33;;
18905;SDS011;9585;51.018;4.282;2022-11-25T12:54:42;7.03;;;2.35;;
18905;SDS011;9585;51.018;4.282;2022-11-25T12:57:33;8.35;;;2.47;;
18905;SDS011;9585;51.018;4.282;2022-11-25T13:00:41;6.32;;;2.20;;
18905;SDS011;9585;51.018;4.282;2022-11-25T13:03:33;9.18;;;2.50;;
18905;SDS011;9585;51.018;4.282;2022-11-25T13:09:37;8.48;;;2.33;;
18905;SDS011;9585;51.018;4.282;2022-11-25T13:12:22;9.82;;;2.70;;
18905;SDS011;9585;51.018;4.282;2022-11-25T13:15:11;8.25;;;2.30;;
18905;SDS011;9585;51.018;4.282;2022-11-25T13:17:46;11.43;;;2.00;;
18905;SDS011;9585;51.018;4.282;2022-11-25T13:20:32;5.47;;;1.95;;
18905;SDS011;9585;51.018;4.282;2022-11-25T13:23:20;8.98;;;2.20;;
18905;SDS011;9585;51.018;4.282;2022-11-25T13:32:29;8.55;;;2.22;;
18905;SDS011;9585;51.018;4.282;2022-11-25T13:41:20;8.27;;;2.05;;
18905;SDS011;9585;51.018;4.282;2022-11-25T13:43:56;12.32;;;3.22;;
18905;SDS011;9585;51.018;4.282;2022-11-25T13:46:31;7.10;;;1.85;;
18905;SDS011;9585;51.018;4.282;2022-11-25T13:49:05;10.98;;;2.50;;
18905;SDS011;9585;51.018;4.282;2022-11-25T13:51:47;7.03;;;2.50;;
18905;SDS011;9585;51.018;4.282;2022-11-25T13:54:16;9.75;;;2.53;;
18905;SDS011;9585;51.018;4.282;2022-11-25T13:56:57;8.98;;;2.20;;
18905;SDS011;9585;51.018;4.282;2022-11-25T13:59:48;14.25;;;2.80;;
18905;SDS011;9585;51.018;4.282;2022-11-25T14:02:34;11.20;;;2.97;;
18905;SDS011;9585;51.018;4.282;2022-11-25T14:05:20;8.23;;;2.60;;
18905;SDS011;9585;51.018;4.282;2022-11-25T14:08:25;9.25;;;2.58;;
18905;SDS011;9585;51.018;4.282;2022-11-25T14:11:02;8.10;;;2.33;;
18905;SDS011;9585;51.018;4.282;2022-11-25T14:14:04;9.90;;;3.25;;
18905;SDS011;9585;51.018;4.282;2022-11-25T14:16:48;10.55;;;2.55;;
18905;SDS011;9585;51.018;4.282;2022-11-25T14:19:37;9.10;;;3.40;;
18905;SDS011;9585;51.018;4.282;2022-11-25T14:22:25;9.20;;;3.22;;
18905;SDS011;9585;51.018;4.282;2022-11-25T14:25:04;10.63;;;2.83;;
18905;SDS011;9585;51.018;4.282;2022-11-25T14:27:43;11.50;;;3.35;;
18905;SDS011;9585;51.018;4.282;2022-11-25T14:30:13;12.57;;;2.65;;
18905;SDS011;9585;51.018;4.282;2022-11-25T14:32:43;10.93;;;3.00;;
18905;SDS011;9585;51.018;4.282;2022-11-25T14:35:18;9.45;;;2.97;;
18905;SDS011;9585;51.018;4.282;2022-11-25T14:37:50;13.55;;;3.13;;
18905;SDS011;9585;51.018;4.282;2022-11-25T14:40:22;10.23;;;3.05;;
18905;SDS011;9585;51.018;4.282;2022-11-25T14:42:57;11.52;;;3.47;;
18905;SDS011;9585;51.018;4.282;2022-11-25T14:45:29;9.57;;;3.20;;
18905;SDS011;9585;51.018;4.282;2022-11-25T14:50:52;8.45;;;2.72;;
18905;SDS011;9585;51.018;4.282;2022-11-25T14:53:22;9.32;;;3.20;;
18905;SDS011;9585;51.018;4.282;2022-11-25T14:55:54;7.93;;;3.05;;
18905;SDS011;9585;51.018;4.282;2022-11-25T14:58:24;9.02;;;3.33;;
18905;SDS011;9585;51.018;4.282;2022-11-25T15:00:58;7.82;;;3.00;;
18905;SDS011;9585;51.018;4.282;2022-11-25T15:03:27;8.73;;;3.10;;
18905;SDS011;9585;51.018;4.282;2022-11-25T15:05:54;9.02;;;3.03;;
18905;SDS011;9585;51.018;4.282;2022-11-25T15:08:27;8.43;;;3.58;;
18905;SDS011;9585;51.018;4.282;2022-11-25T15:11:04;10.10;;;2.92;;
18905;SDS011;9585;51.018;4.282;2022-11-25T15:13:38;9.13;;;3.38;;
18905;SDS011;9585;51.018;4.282;2022-11-25T15:16:09;12.75;;;3.50;;
18905;SDS011;9585;51.018;4.282;2022-11-25T15:18:42;11.25;;;4.13;;
18905;SDS011;9585;51.018;4.282;2022-11-25T15:21:14;12.35;;;3.72;;
18905;SDS011;9585;51.018;4.282;2022-11-25T15:23:44;9.85;;;4.10;;
18905;SDS011;9585;51.018;4.282;2022-11-25T15:26:14;8.25;;;3.53;;
18905;SDS011;9585;51.018;4.282;2022-11-25T15:28:44;9.00;;;3.17;;
18905;SDS011;9585;51.018;4.282;2022-11-25T15:31:16;7.03;;;2.92;;
18905;SDS011;9585;51.018;4.282;2022-11-25T15:33:44;9.45;;;4.15;;
18905;SDS011;9585;51.018;4.282;2022-11-25T15:36:13;7.82;;;3.15;;
18905;SDS011;9585;51.018;4.282;2022-11-25T15:38:40;9.00;;;3.22;;
18905;SDS011;9585;51.018;4.282;2022-11-25T15:41:29;6.07;;;3.20;;
18905;SDS011;9585;51.018;4.282;2022-11-25T15:44:01;8.23;;;4.13;;
18905;SDS011;9585;51.018;4.282;2022-11-25T15:46:31;8.82;;;3.67;;